createdAt,value
2018-06-10T16:56:38.076Z,32.07
2018-06-10T16:59:04.982Z,31.77
2018-06-10T17:01:31.914Z,31.43
2018-06-10T17:03:58.946Z,31.58
2018-06-10T17:06:25.878Z,33.23
2018-06-10T17:08:52.811Z,34.57
2018-06-10T17:11:19.768Z,37.33
2018-06-10T17:13:46.715Z,37.84
2018-06-10T17:16:13.755Z,34.76
2018-06-10T17:18:40.669Z,34.93
2018-06-10T17:21:07.618Z,35.13
2018-06-10T17:23:34.510Z,35.81
2018-06-10T17:26:02.035Z,36.56
2018-06-10T17:28:29.033Z,37.73
2018-06-10T17:30:55.951Z,38.77
2018-06-10T17:33:22.898Z,39.33
2018-06-10T17:35:50.053Z,38.37
2018-06-10T17:38:17.049Z,38.73
2018-06-10T17:40:44.136Z,37.89
2018-06-10T17:43:11.183Z,37.70
2018-06-10T17:45:38.097Z,37.95
2018-06-10T17:48:05.054Z,38.30
2018-06-10T17:50:32.036Z,38.55
2018-06-10T17:52:58.997Z,37.09
2018-06-10T17:55:25.917Z,37.91
2018-06-10T17:57:53.643Z,37.73
2018-06-10T18:00:20.554Z,36.61
2018-06-10T18:02:47.538Z,36.40
2018-06-10T18:05:14.478Z,37.20
2018-06-10T18:07:41.390Z,37.62
2018-06-10T18:10:08.390Z,37.41
2018-06-10T18:12:35.378Z,35.29
2018-06-10T18:15:02.353Z,33.21
2018-06-10T18:17:29.233Z,32.19
2018-06-10T18:19:56.207Z,30.88
2018-06-10T18:22:23.167Z,30.23
2018-06-10T18:24:50.130Z,29.68
2018-06-10T18:27:17.082Z,29.25
2018-06-10T18:29:44.021Z,29.09
2018-06-10T18:32:11.002Z,28.87
2018-06-10T18:34:37.958Z,28.70
2018-06-10T18:37:05.031Z,28.56
2018-06-10T18:39:31.941Z,28.29
2018-06-10T18:41:58.922Z,28.18
2018-06-10T18:44:25.870Z,27.94
2018-06-10T18:46:52.853Z,27.65
2018-06-10T18:49:27.982Z,27.59
2018-06-10T18:51:54.982Z,26.73
2018-06-10T18:54:23.634Z,25.93
2018-06-10T18:57:05.150Z,25.56
2018-06-10T18:59:33.613Z,25.28
2018-06-10T19:02:00.607Z,25.25
2018-06-10T19:04:27.550Z,25.15
2018-06-10T19:06:54.514Z,25.12
2018-06-10T19:09:23.522Z,25.16
2018-06-10T19:11:52.112Z,25.08
2018-06-10T19:14:19.080Z,24.97
2018-06-10T19:16:46.018Z,24.84
2018-06-10T19:19:13.604Z,24.88
2018-06-10T19:21:40.630Z,25.01
2018-06-10T19:24:07.605Z,25.02
2018-06-10T19:26:34.574Z,24.90
2018-06-10T19:29:01.535Z,25.01
2018-06-10T19:31:32.346Z,24.85
2018-06-10T19:33:59.482Z,24.67
2018-06-10T19:36:26.438Z,24.59
2018-06-10T19:38:56.165Z,24.59
2018-06-10T19:41:23.094Z,24.62
2018-06-10T19:43:50.014Z,24.55
2018-06-10T19:46:17.624Z,24.48
2018-06-10T19:48:45.586Z,24.43
2018-06-10T19:51:18.698Z,24.43
2018-06-10T19:53:46.670Z,24.38
2018-06-10T19:56:13.646Z,24.16
2018-06-10T19:58:41.570Z,23.83
2018-06-10T20:01:12.554Z,23.29
2018-06-10T20:03:42.499Z,22.85
2018-06-10T20:06:09.442Z,22.31
2018-06-10T20:08:37.446Z,22.12
2018-06-10T20:11:10.534Z,22.01
2018-06-10T20:13:37.478Z,21.98
2018-06-10T20:16:06.166Z,22.08
2018-06-10T20:18:33.290Z,22.07
2018-06-10T20:21:00.242Z,22.09
2018-06-10T20:23:27.182Z,22.08
2018-06-10T20:25:54.114Z,21.52
2018-06-10T20:28:22.108Z,20.88
2018-06-10T20:30:49.050Z,20.56
2018-06-10T20:33:16.634Z,20.40
2018-06-10T20:35:49.656Z,20.20
2018-06-10T20:38:17.250Z,19.86
2018-06-10T20:40:44.173Z,19.59
2018-06-10T20:43:11.146Z,19.42
2018-06-10T20:45:38.098Z,19.56
2018-06-10T20:48:05.069Z,19.93
2018-06-10T20:50:31.990Z,20.24
2018-06-10T20:53:01.931Z,20.53
2018-06-10T20:55:28.882Z,20.60
2018-06-10T20:57:55.794Z,20.54
2018-06-10T21:00:22.816Z,20.45
2018-06-10T21:02:49.746Z,20.48
2018-06-10T21:05:18.446Z,20.58
2018-06-10T21:07:45.423Z,20.49
2018-06-10T21:10:12.359Z,20.31
2018-06-10T21:12:39.330Z,20.13
2018-06-10T21:15:07.302Z,20.08
2018-06-10T21:17:40.317Z,20.12
2018-06-10T21:20:08.171Z,19.91
2018-06-10T21:22:37.194Z,19.96
2018-06-10T21:25:11.914Z,19.82
2018-06-10T21:27:38.876Z,19.58
2018-06-10T21:30:05.854Z,19.47
2018-06-10T21:32:32.949Z,19.50
2018-06-10T21:34:59.841Z,19.49
2018-06-10T21:37:31.564Z,19.70
2018-06-10T21:39:59.190Z,19.82
2018-06-10T21:42:26.669Z,19.71
2018-06-10T21:44:53.626Z,19.59
2018-06-10T21:47:20.581Z,19.60
2018-06-10T21:49:48.266Z,19.63
2018-06-10T21:52:15.218Z,19.70
2018-06-10T21:54:50.255Z,19.69
2018-06-10T21:57:21.716Z,19.83
2018-06-10T21:59:48.919Z,19.76
2018-06-10T22:02:18.882Z,19.81
2018-06-10T22:04:45.846Z,19.58
2018-06-10T22:07:13.746Z,19.42
2018-06-10T22:09:41.222Z,19.39
2018-06-10T22:12:08.692Z,19.40
2018-06-10T22:14:36.234Z,19.34
2018-06-10T22:17:17.554Z,19.39
2018-06-10T22:19:45.451Z,19.28
2018-06-10T22:22:15.910Z,19.27
2018-06-10T22:24:42.856Z,19.72
2018-06-10T22:27:09.786Z,19.48
2018-06-10T22:29:37.262Z,19.51
2018-06-10T22:32:10.143Z,19.58
2018-06-10T22:34:41.007Z,19.77
2018-06-10T22:37:10.923Z,19.83
2018-06-10T22:39:39.731Z,19.85
2018-06-10T22:42:06.662Z,19.89
2018-06-10T22:44:46.546Z,19.90
2018-06-10T22:47:15.563Z,19.87
2018-06-10T22:49:42.518Z,19.89
2018-06-10T22:52:11.526Z,19.97
2018-06-10T22:54:40.614Z,19.89
2018-06-10T22:57:17.328Z,19.87
2018-06-10T22:59:44.298Z,19.79
2018-06-10T23:02:16.051Z,19.78
2018-06-10T23:04:42.990Z,19.86
2018-06-10T23:07:11.001Z,19.87
2018-06-10T23:09:38.746Z,19.68
2018-06-10T23:12:06.178Z,19.60
2018-06-10T23:14:33.090Z,19.54
2018-06-10T23:17:00.035Z,19.68
2018-06-10T23:19:27.010Z,19.62
2018-06-10T23:21:53.962Z,19.49
2018-06-10T23:24:21.726Z,19.25
2018-06-10T23:26:48.702Z,19.25
2018-06-10T23:29:19.218Z,19.12
2018-06-10T23:31:47.006Z,19.00
2018-06-10T23:34:17.650Z,18.93
2018-06-10T23:36:44.618Z,19.01
2018-06-10T23:39:11.573Z,19.05
2018-06-10T23:41:38.580Z,19.08
2018-06-10T23:44:07.527Z,19.10
2018-06-10T23:46:48.542Z,19.27
2018-06-10T23:49:15.595Z,19.34
2018-06-10T23:51:45.379Z,19.29
2018-06-10T23:54:12.662Z,19.33
2018-06-10T23:56:40.301Z,19.37
2018-06-10T23:59:08.326Z,19.23
